• Join FlightAware (Why Join?)
  • Login
  • US Flag 
Gobble Gobble! 
10:19PM EST


 

Airport Tracker/Info


-or-


 

Live Flight TrackerFlight Track Log ✈ DLA1905 ✈ 01-May-2013 ✈ LIMF / TRN - EDDM / MUC

Flight Track Log - Related Links

Times and Time Zones

All times are in EDT time to prevent confusion due to time zone crossing. See the DLA1905 flight status page for this flight to view local times or setup timezone preferences in your user account.

Time Position Orientation Groundspeed Altitude Reporting Facility
EDT Latitude Longitude Course Direction KTS MPH feet Rate Location/Type
01:16AM 45.9847 8.6164 40° Northeast  Level Estimated
01:17AM 46.0556 8.7056 41° Northeast  Level Estimated
01:18AM 46.1264 8.7951 41° Northeast  Level Estimated
01:19AM 46.1971 8.8848 41° Northeast  Level Estimated
01:20AM 46.2678 8.9747 41° Northeast  Level Estimated
01:21AM 46.3383 9.0649 41° Northeast  Level Estimated
01:22AM 46.4089 9.1553 41° Northeast  Level Estimated
01:23AM 46.4793 9.2459 42° Northeast  Level Estimated
01:24AM 46.5497 9.3368 42° Northeast  Level Estimated
01:25AM 46.6200 9.4279 42° Northeast  Level Estimated
01:26AM 46.6902 9.5192 42° Northeast  Level Estimated
01:27AM 46.7603 9.6108 42° Northeast  Level Estimated
01:28AM 46.8304 9.7026 42° Northeast  Level Estimated
01:29AM 46.9004 9.7946 42° Northeast  Level Estimated
01:30AM 46.9703 9.8869 42° Northeast  Level Estimated
01:31AM 47.0402 9.9794 42° Northeast  Level Estimated
01:32AM 47.1100 10.0722 42° Northeast  Level Estimated
01:33AM 47.1797 10.1652 42° Northeast  Level Estimated
01:34AM 47.2493 10.2585 42° Northeast  Level Estimated
01:35AM 47.3189 10.3520 42° Northeast  Level Estimated
01:36AM 47.3884 10.4458 42° Northeast  Level Estimated
01:37AM 47.4578 10.5398 42° Northeast  Level Estimated
01:38AM 47.5271 10.6340 43° Northeast  Level Estimated
01:39AM 47.5963 10.7285 43° Northeast  Level Estimated
01:40AM 47.6655 10.8232 43° Northeast  Level Estimated
01:41AM 47.7346 10.9183 43° Northeast  Level Estimated
01:42AM 47.8036 11.0135 43° Northeast  Level Estimated
01:43AM 47.8725 11.1090 43° Northeast  Level Estimated
01:44AM 47.9414 11.2048 43° Northeast  Level Estimated
01:45AM 48.0102 11.3008 43° Northeast  Level Estimated
01:46AM 48.0789 11.3971 43° Northeast  Level Estimated
01:47AM 48.1475 11.4936 43° Northeast  Level Estimated
01:48AM 48.2160 11.5904 43° Northeast  Level Estimated
01:49AM 48.2845 11.6874 43° Northeast  Level Estimated
01:50AM 48.3528 11.7847 43° Northeast  Level Estimated
01:51AM 48.3538 11.7861 43° Northeast  Level Estimated
01:52AM 48.3538 11.7861 318° Northwest  Level Estimated
01:53AM 48.3538 11.7861 318° Northwest  Level Estimated
01:54AM 48.3538 11.7861 318° Northwest  Level Estimated
01:55AM 48.3538 11.7861 318° Northwest  Level Estimated
01:56AM 48.3538 11.7861 318° Northwest  Level Estimated
01:57AM 48.3538 11.7861 318° Northwest  Level Estimated
01:58AM 48.3538 11.7861 318° Northwest  Level Estimated
01:59AM 48.3538 11.7861 318° Northwest  Level Estimated
02:00AM 48.3538 11.7861 318° Northwest  Level Estimated
02:01AM 48.3538 11.7861 318° Northwest  Level Estimated
02:02AM 48.3538 11.7861 318° Northwest  Level Estimated
02:03AM 48.3538 11.7861 318° Northwest  Level Estimated
02:04AM 48.3538 11.7861 318° Northwest  Level Estimated
02:05AM 48.3538 11.7861 318° Northwest  Level Estimated
02:06AM 48.3538 11.7861 318° Northwest  Level Estimated
02:07AM 48.3538 11.7861 318° Northwest  Level Estimated
02:08AM 48.3538 11.7861 318° Northwest  Level Estimated
02:09AM 48.3538 11.7861 318° Northwest  Level Estimated
02:10AM 48.3538 11.7861 318° Northwest  Level Estimated
02:11AM 48.3538 11.7861 318° Northwest  Level Estimated
02:12AM 48.3538 11.7861 318° Northwest  Level Estimated
02:13AM 48.3538 11.7861 318° Northwest  Level Estimated
02:14AM 48.3538 11.7861 318° Northwest  Level Estimated